Terminal Aerodrome Forecast
Issued by NWS

Home | Current Version | Previous Version | Text Only | Print | Product List | Glossary On
Versions: 1 2 3 4 5 6 7 8 9 10 11 12 13 14 15 16 17 18 19 20 21 22 23 24
000
FTUS45 KPSR 271726
TAFPHX
TAF
KPHX 271726Z 2718/2818 15008KT P6SM BKN070 BKN200
     FM272000 18008KT P6SM VCSH BKN060 BKN100
     FM272300 24008KT P6SM -RA FEW030 BKN050 OVC070
      TEMPO 2800/2803 VRB05KT 6SM -RA BR FEW020 OVC035
     FM280300 VRB06KT 6SM -RA BR FEW020 BKN040 PROB30 2803/2809
      16008KT 5SM RA BR SCT010 BKN020=

USA.gov is the U.S. government's official web portal to all federal, state and local government web resources and services.